createdAt,value
2019-06-26T00:00:16.575Z,10.13
2019-06-26T00:02:51.683Z,8.85
2019-06-26T00:05:25.695Z,11.12
2019-06-26T00:07:59.933Z,12.70
2019-06-26T00:13:07.713Z,10.68
2019-06-26T00:15:41.764Z,13.83
2019-06-26T00:18:15.792Z,13.58
2019-06-26T00:20:50.225Z,11.28
2019-06-26T00:23:24.097Z,11.12
2019-06-26T00:25:58.644Z,8.15
2019-06-26T00:28:33.056Z,14.13
2019-06-26T00:31:06.986Z,9.80
2019-06-26T00:33:40.939Z,9.68
2019-06-26T00:36:15.105Z,9.83
2019-06-26T00:38:49.344Z,10.30
2019-06-26T00:41:23.367Z,10.00
2019-06-26T00:43:57.414Z,11.53
2019-06-26T00:46:33.091Z,13.48
2019-06-26T00:49:06.924Z,12.07
2019-06-26T00:51:40.805Z,11.05
2019-06-26T00:54:15.330Z,9.35
2019-06-26T00:56:49.311Z,9.00
2019-06-26T00:59:23.368Z,11.25
2019-06-26T01:01:57.478Z,14.80
2019-06-26T01:04:36.255Z,9.50
2019-06-26T01:07:11.385Z,8.23
2019-06-26T01:09:45.591Z,9.75
2019-06-26T01:12:20.055Z,10.78
2019-06-26T01:14:54.857Z,10.03
2019-06-26T01:17:28.856Z,11.88
2019-06-26T01:20:02.960Z,11.40
2019-06-26T01:22:37.203Z,8.93
2019-06-26T01:25:11.232Z,7.42
2019-06-26T01:27:45.436Z,9.87
2019-06-26T01:30:19.628Z,9.63
2019-06-26T01:32:53.663Z,8.43
2019-06-26T01:35:28.191Z,10.13
2019-06-26T01:38:02.634Z,12.15
2019-06-26T01:40:36.778Z,9.83
2019-06-26T01:43:11.133Z,9.93
2019-06-26T01:45:45.355Z,8.78
2019-06-26T01:48:19.378Z,10.73
2019-06-26T01:50:54.747Z,13.72
2019-06-26T01:53:29.118Z,7.05
2019-06-26T01:58:38.097Z,8.38
2019-06-26T02:01:12.320Z,9.30
2019-06-26T02:03:46.354Z,9.43
2019-06-26T02:06:20.535Z,6.92
2019-06-26T02:08:54.702Z,7.43
2019-06-26T02:11:29.872Z,9.65
2019-06-26T02:14:04.042Z,12.03
2019-06-26T02:16:41.692Z,7.72
2019-06-26T02:19:25.249Z,6.50
2019-06-26T02:22:03.656Z,9.60
2019-06-26T02:24:38.288Z,8.00
2019-06-26T02:27:15.278Z,9.63
2019-06-26T02:29:51.357Z,9.98
2019-06-26T02:32:26.143Z,8.43
2019-06-26T02:35:01.960Z,10.78
2019-06-26T02:37:38.559Z,7.85
2019-06-26T02:40:15.159Z,9.40
2019-06-26T02:42:49.704Z,9.60
2019-06-26T02:45:25.332Z,10.35
2019-06-26T02:48:01.636Z,8.28
2019-06-26T02:50:37.237Z,8.18
2019-06-26T02:53:13.051Z,8.53
2019-06-26T02:55:47.582Z,12.30
2019-06-26T02:58:24.249Z,7.85
2019-06-26T03:01:07.998Z,7.75
2019-06-26T03:03:41.870Z,6.80
2019-06-26T03:06:16.687Z,8.80
2019-06-26T03:08:50.975Z,7.58
2019-06-26T03:11:27.080Z,9.33
2019-06-26T03:14:03.741Z,9.43
2019-06-26T03:16:38.720Z,16.93
2019-06-26T03:19:13.250Z,12.60
2019-06-26T03:21:49.921Z,13.38
2019-06-26T03:24:25.946Z,14.00
2019-06-26T03:27:00.091Z,13.10
2019-06-26T03:29:34.169Z,16.77
2019-06-26T03:32:08.384Z,18.65
2019-06-26T03:34:43.694Z,23.25
2019-06-26T03:37:17.646Z,18.47
2019-06-26T03:42:26.693Z,15.28
2019-06-26T03:45:00.771Z,21.83
2019-06-26T03:47:34.864Z,18.42
2019-06-26T03:50:08.923Z,18.63
2019-06-26T03:52:42.890Z,16.35
2019-06-26T03:55:17.393Z,22.58
2019-06-26T03:57:51.445Z,18.37
2019-06-26T04:00:32.293Z,18.30
2019-06-26T04:03:06.457Z,24.18
2019-06-26T04:05:40.530Z,22.60
2019-06-26T04:08:14.822Z,17.45
2019-06-26T04:10:48.843Z,27.95
2019-06-26T04:13:23.365Z,19.17
2019-06-26T04:15:58.844Z,24.85
2019-06-26T04:18:32.918Z,30.33
2019-06-26T04:21:07.864Z,23.22
2019-06-26T04:23:41.879Z,23.10
2019-06-26T04:26:15.968Z,25.35
2019-06-26T04:28:50.028Z,20.03
2019-06-26T04:31:24.011Z,22.87
2019-06-26T04:33:58.097Z,18.50
2019-06-26T04:39:07.555Z,23.18
2019-06-26T04:41:41.831Z,32.30
2019-06-26T04:44:15.892Z,17.82
2019-06-26T04:46:49.698Z,24.87
2019-06-26T04:49:23.759Z,17.75
2019-06-26T04:51:57.788Z,23.83
2019-06-26T04:54:31.981Z,17.45
2019-06-26T04:59:39.846Z,24.90
2019-06-26T05:02:14.203Z,23.90
2019-06-26T05:04:48.152Z,23.47
2019-06-26T05:07:22.103Z,18.05
2019-06-26T05:09:57.178Z,19.63
2019-06-26T05:12:31.181Z,17.82
2019-06-26T05:15:07.729Z,16.48
2019-06-26T05:17:43.305Z,22.42
2019-06-26T05:20:17.396Z,20.43
2019-06-26T05:22:51.488Z,20.27
2019-06-26T05:27:59.541Z,18.65
2019-06-26T05:30:34.573Z,13.98
2019-06-26T05:33:08.674Z,13.37
2019-06-26T05:35:42.734Z,14.25
2019-06-26T05:38:16.650Z,14.00
2019-06-26T05:40:51.514Z,14.50
2019-06-26T05:43:27.236Z,10.32
2019-06-26T05:46:01.209Z,9.40
2019-06-26T05:48:35.255Z,7.72
2019-06-26T05:51:10.258Z,9.13
2019-06-26T05:53:44.373Z,9.03
2019-06-26T05:56:18.596Z,8.88
2019-06-26T05:58:52.517Z,7.78
2019-06-26T06:01:28.017Z,10.78
2019-06-26T06:04:02.547Z,11.70
2019-06-26T06:06:41.794Z,15.03
2019-06-26T06:09:13.299Z,9.05
2019-06-26T06:11:48.944Z,7.97
2019-06-26T06:14:23.134Z,5.92
2019-06-26T06:16:57.232Z,7.80
2019-06-26T06:19:30.901Z,5.83
2019-06-26T06:22:05.858Z,3.85
2019-06-26T06:24:40.085Z,7.58
2019-06-26T06:27:14.820Z,10.32
2019-06-26T06:29:48.762Z,8.30
2019-06-26T06:32:23.479Z,7.30
2019-06-26T06:34:57.505Z,3.90
2019-06-26T06:37:32.051Z,8.28
2019-06-26T06:40:08.442Z,9.38
2019-06-26T06:42:42.678Z,11.68
2019-06-26T06:45:16.797Z,8.20
2019-06-26T06:47:50.775Z,7.05
2019-06-26T06:50:25.695Z,13.48
2019-06-26T06:53:02.495Z,10.13
2019-06-26T06:55:38.007Z,8.80
2019-06-26T06:58:12.205Z,12.33
2019-06-26T07:00:46.411Z,6.73
2019-06-26T07:03:20.652Z,5.25
2019-06-26T07:05:56.597Z,6.95
2019-06-26T07:08:30.767Z,8.80
2019-06-26T07:11:05.157Z,9.08
2019-06-26T07:13:39.954Z,10.18
2019-06-26T07:16:14.070Z,6.78
2019-06-26T07:18:49.430Z,7.15
2019-06-26T07:21:23.982Z,7.95
2019-06-26T07:23:58.326Z,6.75
2019-06-26T07:26:32.394Z,5.35
2019-06-26T07:29:06.638Z,8.40
2019-06-26T07:31:40.476Z,4.37
2019-06-26T07:36:49.664Z,5.85
2019-06-26T07:39:23.594Z,4.33
2019-06-26T07:41:57.582Z,6.80
2019-06-26T07:44:31.909Z,4.30
2019-06-26T07:47:21.864Z,5.30
2019-06-26T07:49:41.688Z,3.58
2019-06-26T07:52:16.702Z,3.95
2019-06-26T07:57:24.534Z,29.63
2019-06-26T07:59:58.501Z,5.45
2019-06-26T08:02:34.096Z,8.88
2019-06-26T08:05:09.942Z,5.97
2019-06-26T08:07:47.112Z,6.20
2019-06-26T08:10:20.979Z,10.40
2019-06-26T08:12:55.941Z,4.13
2019-06-26T08:15:30.108Z,5.70
2019-06-26T08:18:04.424Z,3.80
2019-06-26T08:20:55.051Z,5.93
2019-06-26T08:23:16.966Z,3.50
2019-06-26T08:25:51.022Z,9.50
2019-06-26T08:28:25.064Z,4.30
2019-06-26T08:30:59.378Z,6.10
2019-06-26T08:33:33.733Z,3.13
2019-06-26T08:36:07.689Z,6.92
2019-06-26T08:38:41.767Z,9.20
2019-06-26T08:41:15.789Z,4.97
2019-06-26T08:43:49.941Z,21.10
2019-06-26T08:46:25.224Z,6.35
2019-06-26T08:49:00.303Z,11.12
2019-06-26T08:51:34.425Z,5.03
2019-06-26T08:54:09.504Z,6.85
2019-06-26T08:56:43.426Z,3.52
2019-06-26T08:59:17.828Z,6.58
2019-06-26T09:01:51.784Z,3.40
2019-06-26T09:04:25.755Z,4.80
2019-06-26T09:07:00.102Z,6.25
2019-06-26T09:09:52.636Z,4.50
2019-06-26T09:12:31.341Z,9.63
2019-06-26T09:15:07.008Z,5.53
2019-06-26T09:17:40.977Z,5.90
2019-06-26T09:20:34.263Z,3.58
2019-06-26T09:23:26.699Z,3.83
2019-06-26T09:26:02.094Z,4.50
2019-06-26T09:28:36.326Z,5.28
2019-06-26T09:31:12.053Z,3.98
2019-06-26T09:33:46.388Z,5.78
2019-06-26T09:36:21.291Z,7.78
2019-06-26T09:38:58.009Z,8.93
2019-06-26T09:41:31.979Z,3.70
2019-06-26T09:44:06.029Z,4.58
2019-06-26T09:46:40.287Z,4.45
2019-06-26T09:49:14.267Z,5.05
2019-06-26T09:51:57.940Z,4.07
2019-06-26T09:54:32.518Z,3.70
2019-06-26T09:57:07.360Z,4.50
2019-06-26T09:59:42.315Z,4.75
2019-06-26T10:02:19.606Z,5.90
2019-06-26T10:04:54.630Z,5.80
2019-06-26T10:07:28.805Z,4.78
2019-06-26T10:10:03.053Z,6.20
2019-06-26T10:12:37.484Z,2.25
2019-06-26T10:15:11.824Z,3.20
2019-06-26T10:17:47.174Z,8.33
2019-06-26T10:20:22.297Z,5.70
2019-06-26T10:22:57.750Z,3.30
2019-06-26T10:25:31.714Z,11.85
2019-06-26T10:28:05.778Z,4.85
2019-06-26T10:30:41.185Z,3.00
2019-06-26T10:33:15.177Z,4.28
2019-06-26T10:35:49.721Z,3.58
2019-06-26T10:38:25.556Z,5.05
2019-06-26T10:40:59.784Z,4.80
2019-06-26T10:46:15.134Z,9.10
2019-06-26T10:48:52.523Z,3.02
2019-06-26T10:51:29.449Z,7.62
2019-06-26T10:54:07.159Z,7.60
2019-06-26T10:56:41.783Z,5.50
2019-06-26T10:59:17.160Z,5.15
2019-06-26T11:01:51.271Z,6.28
2019-06-26T11:04:25.873Z,7.12
2019-06-26T11:07:00.451Z,9.23
2019-06-26T11:09:35.301Z,7.10
2019-06-26T11:12:09.722Z,5.70
2019-06-26T11:14:44.178Z,7.53
2019-06-26T11:17:19.968Z,5.65
2019-06-26T11:19:55.697Z,5.25
2019-06-26T11:22:30.074Z,4.35
2019-06-26T11:25:05.200Z,7.17
2019-06-26T11:27:39.909Z,5.53
2019-06-26T11:30:14.303Z,6.90
2019-06-26T11:32:49.020Z,5.08
2019-06-26T11:35:23.860Z,3.65
2019-06-26T11:40:30.741Z,5.00
2019-06-26T11:43:04.532Z,4.67
2019-06-26T11:45:38.725Z,5.67
2019-06-26T11:48:12.848Z,4.00
2019-06-26T11:53:22.705Z,8.48
2019-06-26T11:55:56.671Z,5.08
2019-06-26T11:58:30.754Z,4.10
2019-06-26T12:01:04.851Z,4.78
2019-06-26T12:03:39.218Z,3.95
2019-06-26T12:06:19.049Z,5.47
2019-06-26T12:08:49.401Z,3.62
2019-06-26T12:11:39.860Z,6.17
2019-06-26T12:14:14.833Z,5.70
2019-06-26T12:17:05.850Z,4.03
2019-06-26T12:19:55.787Z,4.45
2019-06-26T12:22:29.784Z,4.92
2019-06-26T12:25:03.768Z,5.17
2019-06-26T12:27:53.568Z,4.75
2019-06-26T12:30:27.569Z,3.63
2019-06-26T12:33:17.375Z,4.67
2019-06-26T12:36:07.295Z,3.70
2019-06-26T12:38:42.299Z,7.08
2019-06-26T12:41:32.370Z,4.12
2019-06-26T12:44:06.381Z,3.35
2019-06-26T12:46:40.625Z,3.30
2019-06-26T12:49:14.408Z,3.98
2019-06-26T12:51:48.380Z,2.87
2019-06-26T12:54:38.085Z,4.58
2019-06-26T12:57:12.682Z,6.45
2019-06-26T12:59:57.212Z,2.65
2019-06-26T13:02:39.050Z,4.10
2019-06-26T13:05:13.096Z,4.12
2019-06-26T13:07:47.285Z,7.50
2019-06-26T13:10:20.982Z,3.77
2019-06-26T13:12:54.776Z,9.18
2019-06-26T13:15:28.789Z,4.05
2019-06-26T13:18:03.463Z,4.15
2019-06-26T13:20:51.711Z,3.83
2019-06-26T13:23:14.854Z,2.55
2019-06-26T13:25:48.657Z,3.30
2019-06-26T13:30:55.806Z,4.72
2019-06-26T13:33:30.639Z,5.47
2019-06-26T13:36:04.858Z,4.40
2019-06-26T13:38:40.260Z,4.40
2019-06-26T13:41:16.002Z,5.45
2019-06-26T13:43:50.275Z,6.08
2019-06-26T13:46:24.684Z,4.17
2019-06-26T13:51:33.426Z,5.33
2019-06-26T13:54:07.400Z,3.92
2019-06-26T13:56:42.006Z,4.92
2019-06-26T13:59:16.160Z,5.12
2019-06-26T14:01:50.973Z,2.42
2019-06-26T14:04:25.417Z,3.00
2019-06-26T14:06:59.380Z,3.55
2019-06-26T14:09:33.040Z,4.83
2019-06-26T14:12:07.071Z,5.92
2019-06-26T14:14:56.782Z,4.08
2019-06-26T14:17:17.216Z,3.25
2019-06-26T14:19:51.254Z,3.00
2019-06-26T14:22:25.126Z,3.95
2019-06-26T14:25:00.160Z,5.87
2019-06-26T14:27:34.176Z,3.12
2019-06-26T14:30:09.532Z,4.78
2019-06-26T14:32:44.282Z,4.95
2019-06-26T14:35:18.501Z,3.45
2019-06-26T14:37:52.422Z,3.67
2019-06-26T14:40:26.700Z,4.95
2019-06-26T14:43:00.669Z,3.25
2019-06-26T14:45:34.649Z,5.33
2019-06-26T14:48:08.844Z,7.03
2019-06-26T14:50:44.222Z,4.75
2019-06-26T14:55:51.511Z,7.22
2019-06-26T14:58:25.935Z,3.60
2019-06-26T15:00:59.583Z,4.15
2019-06-26T15:03:33.338Z,7.58
2019-06-26T15:06:16.248Z,4.60
2019-06-26T15:08:42.747Z,4.42
2019-06-26T15:11:16.793Z,3.55
2019-06-26T15:13:57.023Z,4.33
2019-06-26T15:16:31.218Z,5.28
2019-06-26T15:19:05.095Z,8.55
2019-06-26T15:21:40.094Z,4.37
2019-06-26T15:24:14.177Z,4.10
2019-06-26T15:26:48.232Z,4.03
2019-06-26T15:29:22.011Z,3.83
2019-06-26T15:31:56.445Z,5.05
2019-06-26T15:34:31.048Z,3.00
2019-06-26T15:37:04.942Z,3.08
2019-06-26T15:39:39.473Z,4.30
2019-06-26T15:42:15.223Z,5.75
2019-06-26T15:44:49.115Z,3.33
2019-06-26T15:47:23.007Z,3.15
2019-06-26T15:49:56.865Z,2.60
2019-06-26T15:52:31.701Z,4.92
2019-06-26T15:55:08.557Z,3.17
2019-06-26T15:57:42.467Z,3.85
2019-06-26T16:00:16.649Z,2.85
2019-06-26T16:02:50.984Z,2.80
2019-06-26T16:05:25.027Z,3.02
2019-06-26T16:07:59.878Z,5.72
2019-06-26T16:10:34.723Z,2.50
2019-06-26T16:13:09.834Z,5.80
2019-06-26T16:15:43.862Z,3.17
2019-06-26T16:18:22.547Z,3.70
2019-06-26T16:20:57.111Z,5.28
2019-06-26T16:23:32.256Z,5.45
2019-06-26T16:26:23.090Z,5.05
2019-06-26T16:29:13.170Z,4.87
2019-06-26T16:31:47.425Z,5.22
2019-06-26T16:36:54.599Z,4.67
2019-06-26T16:39:28.965Z,7.75
2019-06-26T16:42:03.042Z,2.40
2019-06-26T16:44:36.902Z,5.37
2019-06-26T16:47:10.908Z,4.00
2019-06-26T16:49:45.347Z,5.45
2019-06-26T16:52:19.487Z,4.10
2019-06-26T16:54:53.824Z,5.05
2019-06-26T16:57:27.885Z,3.45
2019-06-26T17:00:09.420Z,3.80
2019-06-26T17:03:00.736Z,7.55
2019-06-26T17:05:34.722Z,3.87
2019-06-26T17:08:09.800Z,4.10
2019-06-26T17:10:43.927Z,3.30
2019-06-26T17:13:18.354Z,4.12
2019-06-26T17:15:52.395Z,3.27
2019-06-26T17:18:26.633Z,4.85
2019-06-26T17:21:01.761Z,5.12
2019-06-26T17:23:36.652Z,7.40
2019-06-26T17:26:11.186Z,4.50
2019-06-26T17:28:46.181Z,3.37
2019-06-26T17:31:20.344Z,10.38
2019-06-26T17:33:54.577Z,4.72
2019-06-26T17:36:29.088Z,6.15
2019-06-26T17:39:03.193Z,7.05
2019-06-26T17:41:37.446Z,5.65
2019-06-26T17:44:11.619Z,4.97
2019-06-26T17:49:19.605Z,11.35
2019-06-26T17:51:53.680Z,6.25
2019-06-26T17:54:30.519Z,7.17
2019-06-26T17:57:10.195Z,8.15
2019-06-26T17:59:44.302Z,9.58
2019-06-26T18:02:18.229Z,6.60
2019-06-26T18:04:53.014Z,10.72
2019-06-26T18:10:16.339Z,12.65
2019-06-26T18:12:51.852Z,15.15
2019-06-26T18:15:26.027Z,8.65
2019-06-26T18:20:33.791Z,13.15
2019-06-26T18:25:53.873Z,6.33
2019-06-26T18:28:23.427Z,5.58
2019-06-26T18:30:57.761Z,9.38
2019-06-26T18:33:32.796Z,6.87
2019-06-26T18:36:07.029Z,11.88
2019-06-26T18:38:41.352Z,22.27
2019-06-26T18:41:18.888Z,13.45
2019-06-26T18:43:54.032Z,15.95
2019-06-26T18:46:28.791Z,16.48
2019-06-26T18:49:04.284Z,11.48
2019-06-26T18:51:39.506Z,16.70
2019-06-26T18:54:14.119Z,12.95
2019-06-26T18:56:48.370Z,17.10
2019-06-26T18:59:22.631Z,21.90
2019-06-26T19:01:56.687Z,16.30
2019-06-26T19:04:31.419Z,17.65
2019-06-26T19:07:06.810Z,17.50
2019-06-26T19:09:42.109Z,16.80
2019-06-26T19:12:17.154Z,17.20
2019-06-26T19:14:53.081Z,21.87
2019-06-26T19:20:01.363Z,19.55
2019-06-26T19:22:35.565Z,24.60
2019-06-26T19:25:09.922Z,27.33
2019-06-26T19:27:45.072Z,27.17
2019-06-26T19:30:19.950Z,31.55
2019-06-26T19:32:54.167Z,35.88
2019-06-26T19:35:29.233Z,30.08
2019-06-26T19:38:03.927Z,28.67
2019-06-26T19:40:39.089Z,22.85
2019-06-26T19:43:13.354Z,16.37
2019-06-26T19:45:47.258Z,22.20
2019-06-26T19:48:26.415Z,12.70
2019-06-26T19:51:00.707Z,12.58
2019-06-26T19:53:34.769Z,13.28
2019-06-26T19:58:43.924Z,9.60
2019-06-26T20:01:19.924Z,12.90
2019-06-26T20:03:55.805Z,11.80
2019-06-26T20:06:31.644Z,9.90
2019-06-26T20:09:09.026Z,13.05
2019-06-26T20:11:45.701Z,21.23
2019-06-26T20:14:23.559Z,16.10
2019-06-26T20:17:00.110Z,19.05
2019-06-26T20:19:35.895Z,25.82
2019-06-26T20:22:11.376Z,16.97
2019-06-26T20:24:46.920Z,17.10
2019-06-26T20:27:22.913Z,10.72
2019-06-26T20:29:58.859Z,14.23
2019-06-26T20:32:33.925Z,14.58
2019-06-26T20:35:09.349Z,17.00
2019-06-26T20:37:44.138Z,15.72
2019-06-26T20:40:18.240Z,16.50
2019-06-26T20:42:51.998Z,17.23
2019-06-26T20:45:26.628Z,12.98
2019-06-26T20:48:00.965Z,11.43
2019-06-26T20:53:20.079Z,11.80
2019-06-26T20:55:54.168Z,12.43
2019-06-26T20:58:29.410Z,11.78
2019-06-26T21:01:03.336Z,17.75
2019-06-26T21:03:37.529Z,8.20
2019-06-26T21:06:12.137Z,17.80
2019-06-26T21:09:05.275Z,15.18
2019-06-26T21:11:39.862Z,19.35
2019-06-26T21:14:13.975Z,12.90
2019-06-26T21:16:48.248Z,15.30
2019-06-26T21:21:55.821Z,12.90
2019-06-26T21:24:29.417Z,11.18
2019-06-26T21:27:04.313Z,11.65
2019-06-26T21:29:38.049Z,20.20
2019-06-26T21:32:12.553Z,11.60
2019-06-26T21:34:46.403Z,11.95
2019-06-26T21:37:20.488Z,11.63
2019-06-26T21:39:54.580Z,9.40
2019-06-26T21:42:29.413Z,10.93
2019-06-26T21:45:03.129Z,9.35
2019-06-26T21:47:37.011Z,12.85
2019-06-26T21:50:11.263Z,12.80
2019-06-26T21:52:45.331Z,10.58
2019-06-26T21:55:33.632Z,16.50
2019-06-26T21:58:14.141Z,10.50
2019-06-26T22:01:06.196Z,10.43
2019-06-26T22:03:58.506Z,12.63
2019-06-26T22:06:35.256Z,10.82
2019-06-26T22:09:12.689Z,19.30
2019-06-26T22:11:47.560Z,14.05
2019-06-26T22:14:21.574Z,13.83
2019-06-26T22:16:55.740Z,15.08
2019-06-26T22:19:30.794Z,14.28
2019-06-26T22:22:04.805Z,8.80
2019-06-26T22:24:39.054Z,11.22
2019-06-26T22:27:13.236Z,13.65
2019-06-26T22:29:47.317Z,11.30
2019-06-26T22:32:21.488Z,14.03
2019-06-26T22:34:56.318Z,13.07
2019-06-26T22:37:29.920Z,14.93
2019-06-26T22:40:05.211Z,12.60
2019-06-26T22:42:39.472Z,19.60
2019-06-26T22:45:13.448Z,17.73
2019-06-26T22:47:47.476Z,12.47
2019-06-26T22:50:21.612Z,11.22
2019-06-26T22:52:55.885Z,10.03
2019-06-26T22:55:30.240Z,10.10
2019-06-26T22:58:05.011Z,12.15
2019-06-26T23:01:33.855Z,15.00
2019-06-26T23:04:20.373Z,10.88
2019-06-26T23:06:55.045Z,14.40
2019-06-26T23:09:28.844Z,14.95
2019-06-26T23:12:03.674Z,12.88
2019-06-26T23:14:37.373Z,18.87
2019-06-26T23:17:11.820Z,9.08
2019-06-26T23:19:45.687Z,9.98
2019-06-26T23:22:20.220Z,12.10
2019-06-26T23:24:54.410Z,11.45
2019-06-26T23:27:28.553Z,9.53
2019-06-26T23:30:03.679Z,11.60
2019-06-26T23:32:37.653Z,11.03
2019-06-26T23:35:11.573Z,8.83
2019-06-26T23:37:45.407Z,9.60
2019-06-26T23:40:20.609Z,10.25
2019-06-26T23:42:55.458Z,10.15
2019-06-26T23:45:29.357Z,10.60
2019-06-26T23:48:04.536Z,14.17
2019-06-26T23:50:39.426Z,11.55
2019-06-26T23:53:13.851Z,9.23
2019-06-26T23:55:47.979Z,14.47
2019-06-26T23:58:21.888Z,10.18
